Pickwick Observed Data For Previous 48 Hours

Caption
Day and Hour Reservoir Elevation (behind dam)* Tailwater Elevation (below dam)* Average Hourly Discharge*
4/20/2019 1 AM CDT 414.21 367.21 76,587
4/20/2019 2 AM CDT 414.31 367.24 76,863
4/20/2019 3 AM CDT 414.41 367.29 77,364
4/20/2019 4 AM CDT 414.51 367.31 77,407
4/20/2019 5 AM CDT 414.63 367.36 77,763
4/20/2019 6 AM CDT 414.78 367.39 78,177
4/20/2019 7 AM CDT 414.89 367.47 78,498
4/20/2019 8 AM CDT 414.96 367.53 78,785
4/20/2019 9 AM CDT 415.03 367.52 78,812
4/20/2019 10 AM CDT 415.10 367.53 79,050
4/20/2019 11 AM CDT 415.19 367.54 79,095
4/20/2019 12 PM CDT 415.25 367.56 79,334
4/20/2019 1 PM CDT 415.27 367.75 81,010
4/20/2019 2 PM CDT 415.32 368.93 101,297
4/20/2019 3 PM CDT 415.35 369.76 112,478
4/20/2019 4 PM CDT 415.30 370.19 112,586
4/20/2019 5 PM CDT 415.25 370.46 112,469
4/20/2019 6 PM CDT 415.23 370.51 112,398
4/20/2019 7 PM CDT 415.28 370.62 112,500
4/20/2019 8 PM CDT 415.30 370.70 112,688
4/20/2019 9 PM CDT 415.31 370.77 112,933
4/20/2019 10 PM CDT 415.28 370.88 112,876
4/20/2019 11 PM CDT 415.25 370.92 112,605
4/21/2019 12 AM CDT 415.22 370.98 112,661
4/21/2019 1 AM CDT 415.18 370.99 112,480
4/21/2019 2 AM CDT 415.14 371.02 112,259
4/21/2019 3 AM CDT 415.12 371.08 112,111
4/21/2019 4 AM CDT 415.10 371.08 112,102
4/21/2019 5 AM CDT 415.09 371.10 112,013
4/21/2019 6 AM CDT 415.07 371.19 111,868
4/21/2019 7 AM CDT 415.05 371.13 111,776
4/21/2019 8 AM CDT 415.02 371.16 111,567
4/21/2019 9 AM CDT 415.01 371.13 111,408
4/21/2019 10 AM CDT 414.96 371.14 111,138
4/21/2019 11 AM CDT 414.94 371.11 110,932
4/21/2019 12 PM CDT 414.92 371.09 110,753
4/21/2019 1 PM CDT 414.91 371.08 110,580
4/21/2019 2 PM CDT 414.88 371.07 110,504
4/21/2019 3 PM CDT 414.83 371.14 110,341
4/21/2019 4 PM CDT 414.84 371.10 110,443
4/21/2019 5 PM CDT 414.80 371.14 110,494
4/21/2019 6 PM CDT 414.76 371.15 110,302
4/21/2019 7 PM CDT 414.77 371.09 110,088
4/21/2019 8 PM CDT 414.74 371.08 110,045
4/21/2019 9 PM CDT 414.70 371.05 109,769
4/21/2019 10 PM CDT 414.69 371.04 109,618
4/21/2019 11 PM CDT 414.66 371.03 109,482
4/22/2019 12 AM CDT 414.63 371.02 109,294
4/22/2019 1 AM CDT 414.60 371.02 109,169
4/22/2019 2 AM CDT 414.58 371.01 109,006
4/22/2019 3 AM CDT 414.56 371.01 108,904
4/22/2019 4 AM CDT 414.52 371.03 108,708
4/22/2019 5 AM CDT 414.48 370.99 108,415
4/22/2019 6 AM CDT 414.49 370.98 108,313
4/22/2019 7 AM CDT 414.46 370.96 108,455
4/22/2019 8 AM CDT 414.40 370.96 108,021
4/22/2019 9 AM CDT 414.40 371.00 107,798

Elevations are in feet above sea level. Discharges are in cubic feet per second and are reported at the end of the hour.